Time;durP1;ratioP1;P1;durP2;ratioP2;P2;SDS_P1;SDS_P2;PMS_P1;PMS_P2;Temp;Humidity;BMP_temperature;BMP_pressure;BME280_temperature;BME280_humidity;BME280_pressure;Samples;Min_cycle;Max_cycle;Signal;HPM_P1;HPM_P2
2023/07/11 00:00:10;;;;;;;6.55;5.88;;;19.60;94.50;;;;;;4955116;29;20461;-87
2023/07/11 00:02:35;;;;;;;6.68;5.95;;;19.60;94.50;;;;;;4940222;29;20109;-86
2023/07/11 00:05:04;;;;;;;7.60;6.25;;;19.60;94.20;;;;;;4941906;29;20035;-86
2023/07/11 00:07:30;;;;;;;8.23;6.43;;;19.50;94.40;;;;;;4958398;28;20051;-85
2023/07/11 00:09:55;;;;;;;8.20;5.88;;;19.50;94.40;;;;;;4941028;28;20047;-85
2023/07/11 00:12:28;;;;;;;7.82;6.30;;;19.50;94.60;;;;;;4939940;29;20027;-85
2023/07/11 00:14:58;;;;;;;6.55;5.45;;;19.50;94.60;;;;;;4955794;28;20091;-86
2023/07/11 00:17:25;;;;;;;10.13;6.03;;;19.40;95.00;;;;;;4940053;29;20038;-87
2023/07/11 00:19:51;;;;;;;7.68;6.63;;;19.40;95.30;;;;;;4955741;29;20509;-86
2023/07/11 00:22:18;;;;;;;8.85;6.53;;;19.30;95.70;;;;;;4955753;29;20134;-85
2023/07/11 00:25:04;;;;;;;6.93;6.13;;;19.30;95.80;;;;;;4942247;29;20521;-86
2023/07/11 00:27:30;;;;;;;7.07;6.25;;;19.30;95.80;;;;;;4940036;29;20055;-86
2023/07/11 00:29:58;;;;;;;9.27;6.30;;;19.20;95.70;;;;;;4939702;29;20031;-86
2023/07/11 00:32:24;;;;;;;7.15;6.25;;;19.20;96.00;;;;;;4954933;29;20023;-86
2023/07/11 00:34:49;;;;;;;8.57;6.85;;;19.20;96.00;;;;;;4938488;29;20398;-88
2023/07/11 00:37:16;;;;;;;8.68;7.10;;;19.10;95.90;;;;;;4954438;29;20038;-86
2023/07/11 00:39:42;;;;;;;7.63;6.45;;;19.10;96.40;;;;;;4922822;29;20031;-86
2023/07/11 00:42:09;;;;;;;8.45;6.50;;;19.10;96.10;;;;;;4923300;29;20039;-86
2023/07/11 00:44:58;;;;;;;6.85;6.15;;;19.10;96.70;;;;;;4954127;29;20118;-86
2023/07/11 00:47:26;;;;;;;7.43;6.55;;;19.00;96.80;;;;;;4954382;29;20042;-87
2023/07/11 00:50:03;;;;;;;7.70;6.30;;;19.00;97.20;;;;;;4954447;29;20031;-86
2023/07/11 00:52:31;;;;;;;6.72;6.03;;;19.00;97.20;;;;;;4955317;28;20502;-85
2023/07/11 00:55:00;;;;;;;7.50;6.53;;;18.90;97.50;;;;;;4938761;29;20043;-86
2023/07/11 00:57:29;;;;;;;7.93;6.95;;;18.90;98.00;;;;;;4953336;29;20024;-86
2023/07/11 00:59:56;;;;;;;8.13;6.47;;;18.80;98.50;;;;;;4935177;29;20035;-86
2023/07/11 01:02:26;;;;;;;7.38;6.43;;;18.80;98.50;;;;;;4937051;29;20032;-86
2023/07/11 01:04:53;;;;;;;7.47;6.60;;;18.70;98.90;;;;;;4953364;29;20062;-86
2023/07/11 01:07:25;;;;;;;7.82;6.70;;;18.70;99.10;;;;;;4951772;29;20027;-86
2023/07/11 01:09:51;;;;;;;7.38;6.47;;;18.70;98.80;;;;;;4955195;29;20115;-86
2023/07/11 01:12:17;;;;;;;7.28;6.57;;;18.70;98.70;;;;;;4954499;29;20037;-86
2023/07/11 01:14:47;;;;;;;7.40;6.50;;;18.70;99.10;;;;;;4938605;28;20063;-86
2023/07/11 01:17:19;;;;;;;7.85;6.45;;;18.60;99.50;;;;;;4937982;29;20046;-85
2023/07/11 01:19:46;;;;;;;7.65;6.78;;;18.60;99.80;;;;;;4938188;29;20051;-86
2023/07/11 01:22:12;;;;;;;7.75;6.95;;;18.50;99.90;;;;;;4937969;29;20043;-86
2023/07/11 01:24:38;;;;;;;10.82;7.30;;;18.50;99.90;;;;;;4937940;29;20039;-86
2023/07/11 01:27:04;;;;;;;7.75;6.93;;;18.50;99.90;;;;;;4930162;29;20103;-86
2023/07/11 01:29:29;;;;;;;7.80;6.75;;;18.50;99.90;;;;;;4934689;29;20035;-86
2023/07/11 01:31:55;;;;;;;8.35;6.80;;;18.50;99.90;;;;;;4953463;29;20494;-86
2023/07/11 01:34:21;;;;;;;7.93;6.90;;;18.50;99.90;;;;;;4921253;29;20067;-87
2023/07/11 01:36:47;;;;;;;7.55;6.55;;;18.40;99.90;;;;;;4936974;29;20027;-86
2023/07/11 01:39:12;;;;;;;8.80;6.22;;;18.40;99.90;;;;;;4937184;29;20506;-85
2023/07/11 01:41:38;;;;;;;8.68;6.97;;;18.40;99.90;;;;;;4937560;29;20073;-86
2023/07/11 01:44:04;;;;;;;9.07;6.38;;;18.40;99.90;;;;;;4937361;29;20039;-86
2023/07/11 01:46:30;;;;;;;8.38;6.47;;;18.40;99.90;;;;;;4925485;29;20090;-86
2023/07/11 01:48:57;;;;;;;9.43;7.13;;;18.30;99.90;;;;;;4941389;28;20039;-87
2023/07/11 01:51:23;;;;;;;7.88;6.78;;;18.30;99.90;;;;;;4937553;29;20042;-87
2023/07/11 01:53:49;;;;;;;9.13;6.22;;;18.30;99.90;;;;;;4936904;29;20047;-87
2023/07/11 01:56:14;;;;;;;8.02;6.78;;;18.20;99.90;;;;;;4968779;28;20095;-87
2023/07/11 01:58:40;;;;;;;9.10;6.63;;;18.20;99.90;;;;;;4937013;29;20382;-85
2023/07/11 02:01:06;;;;;;;8.45;6.50;;;18.20;99.90;;;;;;4937065;29;20481;-86
2023/07/11 02:03:32;;;;;;;10.07;7.15;;;18.20;99.90;;;;;;4935266;29;20038;-87
2023/07/11 02:06:01;;;;;;;9.70;7.10;;;18.20;99.90;;;;;;4943445;29;20414;-86
2023/07/11 02:08:27;;;;;;;8.60;6.65;;;18.10;99.90;;;;;;4953258;28;20035;-85
2023/07/11 02:10:53;;;;;;;10.15;7.20;;;18.10;99.90;;;;;;4936610;29;20037;-85
2023/07/11 02:13:19;;;;;;;7.63;6.07;;;18.10;99.90;;;;;;4920811;29;20035;-85
2023/07/11 02:15:45;;;;;;;9.80;6.70;;;18.10;99.90;;;;;;4933351;28;20034;-86
2023/07/11 02:18:11;;;;;;;9.07;6.93;;;18.10;99.90;;;;;;4936822;28;20039;-86
2023/07/11 02:20:41;;;;;;;7.30;6.57;;;18.10;99.90;;;;;;4943752;29;20062;-85
2023/07/11 02:23:07;;;;;;;9.85;6.53;;;18.10;99.90;;;;;;4936091;29;20070;-86
2023/07/11 02:25:33;;;;;;;8.18;6.50;;;18.10;99.90;;;;;;4938839;28;20027;-85
2023/07/11 02:27:58;;;;;;;9.05;6.85;;;18.00;99.90;;;;;;4939890;29;20069;-85
2023/07/11 02:30:24;;;;;;;9.02;6.85;;;18.00;99.90;;;;;;4945802;28;20058;-86
2023/07/11 02:32:50;;;;;;;7.63;6.82;;;18.00;99.90;;;;;;4939293;29;20667;-85
2023/07/11 02:35:16;;;;;;;12.63;7.75;;;18.00;99.90;;;;;;4917877;29;20036;-86
2023/07/11 02:37:41;;;;;;;7.75;6.82;;;17.90;99.90;;;;;;4935946;29;20027;-85
2023/07/11 02:40:08;;;;;;;8.45;7.18;;;17.90;99.90;;;;;;4943968;28;20077;-86
2023/07/11 02:42:34;;;;;;;7.60;6.80;;;17.80;99.90;;;;;;4946621;28;20042;-86
2023/07/11 02:44:59;;;;;;;10.57;6.97;;;17.80;99.90;;;;;;4940772;29;20031;-85
2023/07/11 02:47:25;;;;;;;8.10;7.30;;;17.80;99.90;;;;;;4952043;28;20512;-84
2023/07/11 02:49:51;;;;;;;9.13;6.80;;;17.70;99.90;;;;;;4957653;28;20038;-85
2023/07/11 02:52:17;;;;;;;11.13;7.38;;;17.70;99.90;;;;;;4938681;29;20039;-85
2023/07/11 02:54:42;;;;;;;9.50;7.15;;;17.70;99.90;;;;;;4952542;29;20042;-87
2023/07/11 02:57:10;;;;;;;10.75;7.35;;;17.70;99.90;;;;;;4952381;29;20043;-85
2023/07/11 02:59:35;;;;;;;8.50;6.90;;;17.70;99.90;;;;;;4951733;29;20106;-86
2023/07/11 03:02:01;;;;;;;11.57;6.97;;;17.70;99.90;;;;;;4958414;28;20602;-87
2023/07/11 03:04:27;;;;;;;9.15;7.55;;;17.70;99.90;;;;;;4936339;29;20118;-85
2023/07/11 03:06:56;;;;;;;9.20;7.05;;;17.60;99.90;;;;;;4917000;29;20042;-86
2023/07/11 03:09:23;;;;;;;10.10;7.10;;;17.60;99.90;;;;;;4951932;28;20067;-86
2023/07/11 03:11:50;;;;;;;7.72;6.93;;;17.60;99.90;;;;;;4946344;28;20034;-85
2023/07/11 03:14:15;;;;;;;9.10;7.03;;;17.60;99.90;;;;;;4962854;28;20389;-86
2023/07/11 03:16:42;;;;;;;8.63;7.57;;;17.60;99.90;;;;;;4926716;29;20043;-85
2023/07/11 03:19:09;;;;;;;10.20;7.22;;;17.60;99.90;;;;;;4951725;28;20318;-86
2023/07/11 03:21:35;;;;;;;8.98;7.43;;;17.60;99.90;;;;;;4920326;29;20672;-86
2023/07/11 03:24:01;;;;;;;8.43;7.20;;;17.50;99.90;;;;;;4943202;29;20038;-86
2023/07/11 03:26:27;;;;;;;8.85;7.38;;;17.50;99.90;;;;;;4934844;29;20328;-85
2023/07/11 03:28:53;;;;;;;8.90;7.72;;;17.50;99.90;;;;;;4951419;29;20043;-85
2023/07/11 03:31:18;;;;;;;9.30;8.00;;;17.50;99.90;;;;;;4951448;29;20093;-86
2023/07/11 03:33:47;;;;;;;8.90;8.00;;;17.50;99.90;;;;;;4935378;29;20221;-86
2023/07/11 03:36:13;;;;;;;10.23;7.80;;;17.50;99.90;;;;;;4943041;28;20170;-85
2023/07/11 03:38:39;;;;;;;10.38;8.52;;;17.40;99.90;;;;;;4962668;28;20110;-86
2023/07/11 03:41:05;;;;;;;9.48;8.48;;;17.40;99.90;;;;;;4962767;28;20045;-85
2023/07/11 03:43:31;;;;;;;11.35;8.65;;;17.40;99.90;;;;;;4942746;29;20541;-85
2023/07/11 03:45:57;;;;;;;9.38;7.90;;;17.40;99.90;;;;;;4938382;29;20047;-85
2023/07/11 03:48:22;;;;;;;9.95;8.10;;;17.40;99.90;;;;;;4925037;29;20051;-86
2023/07/11 03:50:48;;;;;;;11.25;7.95;;;17.40;99.90;;;;;;4945915;29;20034;-85
2023/07/11 03:53:14;;;;;;;9.68;8.60;;;17.40;99.90;;;;;;4938266;28;20039;-85
2023/07/11 03:55:43;;;;;;;13.43;8.93;;;17.40;99.90;;;;;;4942293;29;20646;-86
2023/07/11 03:58:09;;;;;;;9.90;7.97;;;17.40;99.90;;;;;;4954158;29;20035;-86
2023/07/11 04:00:34;;;;;;;8.85;7.70;;;17.40;99.90;;;;;;4929775;29;20039;-86
2023/07/11 04:03:01;;;;;;;11.80;8.30;;;17.40;99.90;;;;;;4945137;28;20421;-85
2023/07/11 04:05:28;;;;;;;10.27;7.90;;;17.40;99.90;;;;;;4922753;29;20032;-86
2023/07/11 04:07:54;;;;;;;9.15;7.75;;;17.50;99.90;;;;;;4934705;29;20624;-87
2023/07/11 04:10:20;;;;;;;10.15;7.93;;;17.50;99.90;;;;;;4953585;29;20035;-85
2023/07/11 04:12:45;;;;;;;9.77;7.03;;;17.50;99.90;;;;;;4937986;29;20031;-85
2023/07/11 04:15:13;;;;;;;8.77;7.70;;;17.50;99.90;;;;;;4945359;28;20031;-86
2023/07/11 04:17:39;;;;;;;8.95;7.68;;;17.50;99.90;;;;;;4954041;29;20070;-85
2023/07/11 04:20:06;;;;;;;9.23;7.57;;;17.50;99.90;;;;;;4953961;29;20043;-86
2023/07/11 04:22:32;;;;;;;8.55;7.43;;;17.60;99.90;;;;;;4963576;28;20102;-86
2023/07/11 04:24:58;;;;;;;9.30;8.30;;;17.60;99.90;;;;;;4958883;28;20486;-86
2023/07/11 04:27:25;;;;;;;10.45;8.13;;;17.60;99.90;;;;;;4934069;28;20466;-85
2023/07/11 04:29:51;;;;;;;12.00;8.60;;;17.60;99.90;;;;;;4949496;28;20039;-85
2023/07/11 04:32:17;;;;;;;10.25;8.90;;;17.60;99.90;;;;;;4942164;29;20032;-86
2023/07/11 04:34:43;;;;;;;8.98;8.13;;;17.60;99.90;;;;;;4939834;29;20031;-86
2023/07/11 04:37:09;;;;;;;11.00;9.18;;;17.60;99.90;;;;;;4955564;29;20030;-86
2023/07/11 04:39:34;;;;;;;9.60;8.63;;;17.60;99.90;;;;;;4922952;29;20130;-85
2023/07/11 04:42:00;;;;;;;10.38;8.27;;;17.70;99.90;;;;;;4938751;29;20044;-85
2023/07/11 04:44:26;;;;;;;9.07;8.18;;;17.70;99.90;;;;;;4954865;29;20035;-86
2023/07/11 04:46:52;;;;;;;10.02;8.02;;;17.80;99.90;;;;;;4938554;29;20039;-85
2023/07/11 04:49:18;;;;;;;10.00;8.70;;;17.80;99.90;;;;;;4939291;28;20042;-86
2023/07/11 04:51:43;;;;;;;10.45;8.93;;;17.90;99.90;;;;;;4960695;28;20484;-86
2023/07/11 04:54:09;;;;;;;10.63;8.95;;;18.00;99.90;;;;;;4954140;29;20039;-86
2023/07/11 04:56:39;;;;;;;11.82;8.85;;;18.00;99.90;;;;;;4938310;29;20028;-86
2023/07/11 04:59:05;;;;;;;11.15;8.13;;;18.10;99.90;;;;;;4955136;29;20486;-86
2023/07/11 05:01:30;;;;;;;10.43;8.45;;;18.10;99.90;;;;;;4938988;29;20042;-86
2023/07/11 05:03:56;;;;;;;9.95;8.32;;;18.20;99.90;;;;;;4938403;29;20236;-86
2023/07/11 05:06:22;;;;;;;9.27;7.93;;;18.30;99.90;;;;;;4947732;28;20066;-86
2023/07/11 05:08:48;;;;;;;8.57;7.78;;;18.30;99.90;;;;;;4957381;28;20089;-86
2023/07/11 05:11:19;;;;;;;10.05;8.18;;;18.50;99.90;;;;;;4950711;28;20034;-85
2023/07/11 05:13:46;;;;;;;9.63;8.02;;;18.50;99.90;;;;;;4945631;29;20590;-84
2023/07/11 05:16:22;;;;;;;9.45;8.15;;;18.60;99.90;;;;;;4939081;29;20035;-85
2023/07/11 05:18:49;;;;;;;10.15;8.68;;;18.70;99.90;;;;;;4952763;28;20054;-86
2023/07/11 05:21:16;;;;;;;11.85;9.85;;;18.80;99.90;;;;;;4958889;28;20034;-86
2023/07/11 05:23:43;;;;;;;18.83;14.52;;;18.90;99.90;;;;;;4961461;28;20031;-87
2023/07/11 05:26:09;;;;;;;14.52;10.55;;;18.90;99.90;;;;;;4937617;29;20442;-86
2023/07/11 05:28:35;;;;;;;11.80;9.75;;;19.00;99.90;;;;;;4938004;29;20038;-86
2023/07/11 05:31:03;;;;;;;15.27;11.80;;;19.10;99.90;;;;;;4937312;29;20478;-86
2023/07/11 05:33:32;;;;;;;15.57;12.10;;;19.10;99.90;;;;;;4958186;28;20023;-85
2023/07/11 05:36:31;;;;;;;15.52;12.30;;;19.30;99.90;;;;;;4951923;28;20031;-87
2023/07/11 05:38:54;;;;;;;17.45;12.23;;;19.50;99.90;;;;;;4953024;28;20520;-88
2023/07/11 05:41:20;;;;;;;12.73;11.43;;;19.70;99.90;;;;;;4935933;29;20035;-86
2023/07/11 05:43:46;;;;;;;13.30;10.98;;;19.90;99.90;;;;;;4948336;28;20070;-88
2023/07/11 05:46:12;;;;;;;14.73;11.65;;;20.20;99.90;;;;;;4934939;29;20151;-87
2023/07/11 05:48:38;;;;;;;12.07;10.88;;;20.50;99.90;;;;;;4935378;29;20064;-87
2023/07/11 05:51:07;;;;;;;14.63;11.77;;;20.80;99.90;;;;;;4956227;28;20038;-87
2023/07/11 05:53:33;;;;;;;15.10;11.38;;;21.10;99.90;;;;;;4952477;28;20482;-86
2023/07/11 05:55:59;;;;;;;12.45;10.32;;;21.40;99.90;;;;;;4934913;29;20034;-86
2023/07/11 05:58:26;;;;;;;14.07;10.55;;;21.70;99.90;;;;;;4963001;28;20066;-85
2023/07/11 06:00:53;;;;;;;12.05;10.75;;;22.00;99.90;;;;;;4936137;28;20169;-87
2023/07/11 06:03:20;;;;;;;13.48;11.05;;;22.30;99.90;;;;;;4922197;28;20129;-86
2023/07/11 06:05:46;;;;;;;11.45;9.93;;;22.60;99.90;;;;;;4959651;28;20031;-87
2023/07/11 06:08:12;;;;;;;10.90;9.80;;;22.70;99.90;;;;;;4935382;29;20414;-88
2023/07/11 06:10:38;;;;;;;10.43;9.32;;;22.80;99.90;;;;;;4956017;28;20106;-86
2023/07/11 06:13:04;;;;;;;11.00;9.80;;;23.00;99.90;;;;;;4940129;28;20054;-85
2023/07/11 06:15:31;;;;;;;12.57;10.05;;;23.30;99.90;;;;;;4955071;28;20557;-87
2023/07/11 06:17:57;;;;;;;12.68;9.88;;;23.50;99.90;;;;;;4951398;29;20039;-87
2023/07/11 06:20:23;;;;;;;10.02;8.93;;;23.60;99.40;;;;;;4937020;28;20046;-86
2023/07/11 06:22:48;;;;;;;9.10;8.20;;;24.00;99.70;;;;;;4938829;28;20089;-87
2023/07/11 06:25:14;;;;;;;12.93;9.90;;;24.30;98.30;;;;;;4946129;29;20038;-87
2023/07/11 06:27:40;;;;;;;10.00;9.10;;;24.60;96.80;;;;;;4955102;28;20058;-87
2023/07/11 06:30:06;;;;;;;14.18;9.77;;;24.60;96.50;;;;;;4924156;29;20062;-84
2023/07/11 06:32:32;;;;;;;10.77;9.05;;;24.60;95.90;;;;;;4952679;28;20073;-86
2023/07/11 06:34:58;;;;;;;10.35;9.25;;;24.80;95.20;;;;;;4940478;29;20059;-87
2023/07/11 06:37:24;;;;;;;11.80;9.40;;;24.50;95.30;;;;;;4955336;28;20114;-86
2023/07/11 06:39:50;;;;;;;10.15;8.95;;;24.60;95.20;;;;;;4938604;29;20485;-85
2023/07/11 06:42:17;;;;;;;11.63;9.57;;;24.80;94.80;;;;;;4928072;29;20046;-85
2023/07/11 06:44:43;;;;;;;12.45;10.00;;;24.70;94.70;;;;;;4939369;28;20039;-88
2023/07/11 06:47:08;;;;;;;11.93;9.90;;;24.70;95.00;;;;;;4946071;29;20043;-86
2023/07/11 06:49:35;;;;;;;11.65;9.43;;;24.80;95.30;;;;;;4948549;28;20043;-84
2023/07/11 06:52:02;;;;;;;11.15;10.00;;;24.80;94.70;;;;;;4955549;28;20036;-86
2023/07/11 06:54:28;;;;;;;10.55;9.45;;;25.00;94.90;;;;;;4919187;28;20040;-85
2023/07/11 06:56:54;;;;;;;11.90;10.15;;;25.30;94.30;;;;;;4938231;28;20035;-86
2023/07/11 06:59:21;;;;;;;15.38;9.90;;;25.50;93.90;;;;;;4935031;28;20043;-85
2023/07/11 07:01:48;;;;;;;11.73;9.52;;;25.60;93.40;;;;;;4950290;29;20047;-86
2023/07/11 07:04:14;;;;;;;14.13;9.73;;;25.80;92.30;;;;;;4949161;28;20122;-86
2023/07/11 07:06:44;;;;;;;13.40;8.75;;;26.10;92.30;;;;;;4937628;28;20118;-88
2023/07/11 07:09:10;;;;;;;9.63;8.60;;;26.40;91.50;;;;;;4951552;28;20039;-85
2023/07/11 07:11:37;;;;;;;11.63;9.48;;;26.50;90.90;;;;;;4952680;28;20049;-88
2023/07/11 07:14:06;;;;;;;11.68;10.02;;;26.40;91.10;;;;;;4954835;28;20031;-86
2023/07/11 07:16:37;;;;;;;13.27;9.60;;;26.60;90.10;;;;;;4939937;28;20055;-84
2023/07/11 07:19:04;;;;;;;11.88;10.63;;;26.40;90.80;;;;;;4959230;28;20493;-86
2023/07/11 07:21:30;;;;;;;13.80;9.60;;;26.30;90.70;;;;;;4941047;29;20095;-85
2023/07/11 07:23:56;;;;;;;10.70;9.45;;;26.60;90.80;;;;;;4952469;28;20483;-85
2023/07/11 07:26:22;;;;;;;10.63;9.38;;;26.80;89.60;;;;;;4943794;28;20028;-83
2023/07/11 07:28:48;;;;;;;12.25;9.15;;;27.20;88.30;;;;;;4925697;29;20093;-84
2023/07/11 07:31:13;;;;;;;12.65;9.32;;;27.30;88.80;;;;;;4942319;29;20082;-85
2023/07/11 07:33:40;;;;;;;9.93;8.93;;;27.70;87.80;;;;;;4941081;28;20061;-86
2023/07/11 07:36:09;;;;;;;11.65;10.43;;;27.80;85.80;;;;;;4949118;29;20051;-83
2023/07/11 07:38:35;;;;;;;12.00;9.75;;;27.90;84.20;;;;;;4940461;28;20070;-86
2023/07/11 07:41:03;;;;;;;11.45;10.25;;;28.10;84.50;;;;;;4941657;28;20552;-85
2023/07/11 07:43:30;;;;;;;13.82;9.73;;;27.80;81.40;;;;;;4948104;28;20041;-84
2023/07/11 07:45:58;;;;;;;12.95;9.70;;;27.50;83.90;;;;;;4952401;28;20182;-84
2023/07/11 07:48:25;;;;;;;10.57;9.07;;;27.60;84.50;;;;;;4918499;28;20035;-84
2023/07/11 07:50:51;;;;;;;13.15;10.10;;;27.90;82.90;;;;;;4949739;28;20031;-86
2023/07/11 07:53:17;;;;;;;12.23;9.27;;;27.50;79.80;;;;;;4936392;28;20182;-85
2023/07/11 07:55:43;;;;;;;10.00;9.00;;;27.50;82.00;;;;;;4962488;28;20549;-85
2023/07/11 07:58:10;;;;;;;13.18;11.65;;;27.70;83.00;;;;;;4953880;28;20090;-86
2023/07/11 08:00:37;;;;;;;8.95;7.93;;;28.00;84.40;;;;;;4959339;28;20374;-85
2023/07/11 08:03:03;;;;;;;9.48;8.55;;;28.30;79.20;;;;;;4969288;28;20027;-86
2023/07/11 08:05:37;;;;;;;10.15;8.38;;;28.50;75.40;;;;;;4959854;29;20019;-88
2023/07/11 08:08:04;;;;;;;12.63;7.97;;;28.80;77.00;;;;;;4953220;28;20035;-85
2023/07/11 08:10:32;;;;;;;9.18;7.88;;;29.10;73.40;;;;;;4947385;28;20054;-86
2023/07/11 08:13:00;;;;;;;10.88;7.45;;;29.20;72.80;;;;;;4960250;28;20058;-87
2023/07/11 08:15:26;;;;;;;14.25;9.93;;;29.60;72.30;;;;;;4958630;28;20031;-87
2023/07/11 08:17:53;;;;;;;9.07;7.05;;;29.80;68.40;;;;;;4954407;28;20099;-88
2023/07/11 08:20:20;;;;;;;8.63;7.63;;;30.10;66.80;;;;;;4954881;28;20458;-86
2023/07/11 08:22:46;;;;;;;9.85;7.40;;;30.10;64.70;;;;;;4936943;29;20077;-86
2023/07/11 08:25:14;;;;;;;8.23;7.43;;;30.30;63.40;;;;;;4934512;29;20126;-86
2023/07/11 08:27:40;;;;;;;9.23;6.90;;;30.40;63.40;;;;;;4935434;29;20086;-87
2023/07/11 08:30:06;;;;;;;8.38;7.15;;;30.60;62.20;;;;;;4924416;29;20032;-86
2023/07/11 08:32:32;;;;;;;9.07;6.78;;;30.80;63.40;;;;;;4931843;29;20095;-86
2023/07/11 08:34:58;;;;;;;9.00;6.60;;;31.10;63.60;;;;;;4915205;29;20046;-85
2023/07/11 08:37:24;;;;;;;7.45;6.68;;;31.40;63.50;;;;;;4919187;29;20042;-86
2023/07/11 08:39:50;;;;;;;8.05;6.30;;;31.40;65.00;;;;;;4950695;29;20406;-85
2023/07/11 08:42:40;;;;;;;8.48;7.25;;;31.60;58.40;;;;;;4944666;28;20680;-86
2023/07/11 08:45:22;;;;;;;7.25;6.55;;;31.60;58.90;;;;;;4928348;29;20516;-85
2023/07/11 08:48:00;;;;;;;7.55;5.75;;;31.80;58.60;;;;;;4952064;29;20043;-85
2023/07/11 08:50:36;;;;;;;9.32;6.28;;;31.80;56.40;;;;;;4966317;28;20059;-86
2023/07/11 08:53:09;;;;;;;11.25;7.13;;;31.50;55.90;;;;;;4953338;28;20710;-90
2023/07/11 08:55:44;;;;;;;8.27;7.18;;;30.80;57.00;;;;;;4936345;29;20070;-86
2023/07/11 08:58:29;;;;;;;7.70;7.00;;;30.20;58.70;;;;;;4952106;29;20031;-87
2023/07/11 09:00:56;;;;;;;7.35;6.03;;;30.10;63.60;;;;;;4949649;29;20035;-86
2023/07/11 09:03:29;;;;;;;10.43;7.07;;;30.10;62.30;;;;;;4951636;29;20059;-85
2023/07/11 09:06:06;;;;;;;7.57;6.45;;;30.10;61.80;;;;;;4952809;28;20043;-86
2023/07/11 09:08:32;;;;;;;8.10;7.07;;;30.10;63.80;;;;;;4951739;29;20063;-86
2023/07/11 09:11:09;;;;;;;7.47;6.18;;;30.10;66.40;;;;;;4935997;29;20042;-87
2023/07/11 09:13:56;;;;;;;7.00;6.32;;;30.10;61.60;;;;;;4952248;29;20509;-87
2023/07/11 09:16:34;;;;;;;7.68;6.38;;;30.00;63.80;;;;;;4951828;29;20031;-84
2023/07/11 09:19:38;;;;;;;7.43;5.85;;;30.00;63.60;;;;;;4975836;28;20035;-85
2023/07/11 09:22:17;;;;;;;8.85;6.30;;;30.10;62.80;;;;;;4956178;28;20122;-86
2023/07/11 09:25:18;;;;;;;9.57;6.40;;;30.20;61.70;;;;;;4932889;29;20038;-85
2023/07/11 09:28:07;;;;;;;8.15;5.80;;;30.10;62.50;;;;;;4939844;28;20142;-86
2023/07/11 09:30:54;;;;;;;9.23;5.70;;;30.10;65.00;;;;;;4934267;29;20508;-86
2023/07/11 09:33:28;;;;;;;7.18;6.05;;;30.00;64.20;;;;;;4945459;28;20629;-86
2023/07/11 09:35:55;;;;;;;6.43;5.63;;;30.10;62.10;;;;;;4950946;28;20074;-87
2023/07/11 09:38:39;;;;;;;9.73;6.90;;;30.10;61.70;;;;;;4963716;28;20128;-85
2023/07/11 09:41:48;;;;;;;8.63;6.70;;;30.00;60.80;;;;;;4940916;29;20035;-85
2023/07/11 09:44:14;;;;;;;8.15;6.15;;;30.10;63.80;;;;;;4897491;29;20071;-85
2023/07/11 09:46:39;;;;;;;6.65;5.65;;;30.00;60.00;;;;;;4929895;28;20047;-86
2023/07/11 09:49:08;;;;;;;7.97;6.05;;;30.00;66.40;;;;;;4933552;29;20039;-86
2023/07/11 09:51:54;;;;;;;6.55;5.57;;;30.00;66.10;;;;;;4950706;28;20509;-86
2023/07/11 09:54:24;;;;;;;;;;;30.00;61.90;;;;;;4932083;29;20031;-86
2023/07/11 09:56:50;;;;;;;7.18;5.85;;;30.00;60.30;;;;;;4947164;29;19910;-86
2023/07/11 09:59:18;;;;;;;7.40;5.70;;;29.90;61.90;;;;;;4935164;29;20676;-86
2023/07/11 10:01:44;;;;;;;7.82;6.10;;;29.90;66.60;;;;;;4936453;28;20039;-85
2023/07/11 10:04:17;;;;;;;6.03;5.47;;;29.90;60.60;;;;;;4934585;29;20039;-84
2023/07/11 10:06:56;;;;;;;9.00;6.38;;;29.90;64.20;;;;;;4961041;28;20576;-85
2023/07/11 10:09:36;;;;;;;8.32;6.03;;;29.90;62.00;;;;;;4948563;28;20030;-84
2023/07/11 10:12:03;;;;;;;7.13;6.20;;;29.90;62.80;;;;;;4951107;29;20031;-85
2023/07/11 10:14:35;;;;;;;7.50;6.38;;;29.90;62.00;;;;;;4932122;29;20062;-86
2023/07/11 10:17:38;;;;;;;6.85;6.10;;;29.90;60.10;;;;;;4933761;29;20094;-85
2023/07/11 10:20:11;;;;;;;7.65;6.30;;;29.90;61.60;;;;;;4950136;29;20106;-84
2023/07/11 10:22:37;;;;;;;6.65;5.95;;;29.80;63.30;;;;;;4951787;29;20449;-84
2023/07/11 10:25:18;;;;;;;7.38;6.20;;;29.80;63.70;;;;;;4934407;29;20047;-85
2023/07/11 10:27:52;;;;;;;8.10;6.55;;;29.90;64.80;;;;;;4950153;29;20536;-84
2023/07/11 10:30:22;;;;;;;6.55;5.85;;;30.00;61.70;;;;;;4950614;29;20035;-86
2023/07/11 10:32:57;;;;;;;7.15;5.80;;;30.00;62.00;;;;;;4917739;29;20135;-85
2023/07/11 10:35:25;;;;;;;9.32;6.95;;;30.10;65.10;;;;;;4949554;29;20508;-85
2023/07/11 10:38:02;;;;;;;7.78;6.13;;;30.00;59.90;;;;;;4950939;29;20058;-85
2023/07/11 10:40:40;;;;;;;6.03;5.47;;;30.00;63.20;;;;;;4951131;29;20031;-87
2023/07/11 10:43:27;;;;;;;11.73;7.20;;;30.20;64.90;;;;;;4937499;29;20082;-86
2023/07/11 10:46:38;;;;;;;7.22;6.20;;;29.90;58.10;;;;;;4954201;28;20118;-85
2023/07/11 10:49:08;;;;;;;7.07;5.63;;;29.90;59.80;;;;;;4919455;29;20046;-86
2023/07/11 10:52:00;;;;;;;9.63;5.90;;;29.90;60.90;;;;;;4921106;29;20406;-88
2023/07/11 10:54:45;;;;;;;7.90;6.03;;;29.90;58.90;;;;;;4951823;29;20039;-86
2023/07/11 10:57:38;;;;;;;7.33;6.63;;;29.90;62.00;;;;;;4951068;28;20043;-86
2023/07/11 11:00:13;;;;;;;6.63;6.03;;;29.80;60.80;;;;;;4950949;29;20052;-84
2023/07/11 11:02:50;;;;;;;6.75;5.88;;;30.00;62.10;;;;;;4950744;28;20035;-86
2023/07/11 11:05:24;;;;;;;7.40;6.53;;;30.20;58.80;;;;;;4950816;29;20038;-85
2023/07/11 11:07:57;;;;;;;10.52;6.47;;;30.40;59.00;;;;;;4950924;28;20038;-86
2023/07/11 11:10:30;;;;;;;7.03;6.30;;;30.50;59.30;;;;;;4957100;28;20023;-85
2023/07/11 11:13:00;;;;;;;8.40;6.57;;;30.70;59.80;;;;;;4951829;28;20073;-86
2023/07/11 11:16:10;;;;;;;7.85;6.60;;;30.70;59.70;;;;;;4934231;29;20042;-86
2023/07/11 11:19:06;;;;;;;7.90;6.95;;;30.60;57.40;;;;;;4878966;29;20036;-87
2023/07/11 11:21:38;;;;;;;10.25;6.68;;;30.70;59.00;;;;;;4899970;29;20407;-87
2023/07/11 11:24:25;;;;;;;7.50;6.55;;;30.60;57.10;;;;;;4951574;28;20043;-86
2023/07/11 11:27:05;;;;;;;9.57;7.18;;;30.60;60.40;;;;;;4949189;29;20639;-87
2023/07/11 11:29:52;;;;;;;9.77;7.63;;;30.60;57.50;;;;;;4932627;29;20035;-86
2023/07/11 11:33:06;;;;;;;12.25;7.65;;;30.60;59.50;;;;;;4934199;29;20035;-87
2023/07/11 11:35:37;;;;;;;10.70;7.93;;;30.50;55.40;;;;;;4899667;28;20075;-87
2023/07/11 11:38:30;;;;;;;10.80;7.75;;;29.90;56.10;;;;;;4949742;29;20541;-85
2023/07/11 11:41:00;;;;;;;9.77;7.90;;;29.90;58.30;;;;;;4947812;29;20410;-86
2023/07/11 11:43:27;;;;;;;9.20;7.05;;;30.10;58.70;;;;;;4934870;29;20434;-86
2023/07/11 11:45:54;;;;;;;8.88;7.03;;;30.20;58.60;;;;;;4919384;29;20032;-85
2023/07/11 11:48:24;;;;;;;7.88;7.07;;;30.40;56.40;;;;;;4950783;29;20490;-87
2023/07/11 11:50:52;;;;;;;10.45;7.20;;;30.50;55.70;;;;;;4952753;28;20379;-85
2023/07/11 11:53:44;;;;;;;8.82;7.05;;;30.60;55.60;;;;;;4935763;29;20039;-86
2023/07/11 11:56:20;;;;;;;9.43;7.15;;;30.80;58.70;;;;;;4951490;29;20068;-87
2023/07/11 11:58:57;;;;;;;9.30;6.90;;;31.00;57.10;;;;;;4951853;29;20537;-86
2023/07/11 12:01:57;;;;;;;8.80;7.50;;;31.20;56.20;;;;;;4938185;29;20482;-85
2023/07/11 12:04:29;;;;;;;9.38;7.70;;;31.30;55.40;;;;;;4938699;29;20135;-88
2023/07/11 12:07:01;;;;;;;11.60;7.20;;;31.40;52.30;;;;;;4955113;29;20035;-87
2023/07/11 12:09:33;;;;;;;9.20;6.85;;;31.30;54.00;;;;;;4954258;29;20425;-87
2023/07/11 12:12:05;;;;;;;9.50;7.88;;;31.40;51.20;;;;;;4947124;29;20032;-86
2023/07/11 12:14:52;;;;;;;8.48;7.60;;;31.40;51.50;;;;;;4936629;29;20059;-86
2023/07/11 12:17:33;;;;;;;7.65;6.85;;;31.40;51.90;;;;;;4952034;29;20035;-86
2023/07/11 12:20:02;;;;;;;11.18;7.03;;;31.60;55.30;;;;;;4938788;29;20042;-87
2023/07/11 12:22:36;;;;;;;8.05;6.78;;;31.70;54.70;;;;;;4955021;28;20046;-86
2023/07/11 12:25:05;;;;;;;8.27;7.05;;;31.90;52.90;;;;;;4939013;29;20039;-86
2023/07/11 12:27:31;;;;;;;8.68;7.57;;;32.00;52.30;;;;;;4956233;28;20035;-86
2023/07/11 12:30:02;;;;;;;10.25;7.22;;;32.20;53.60;;;;;;4939027;29;20065;-86
2023/07/11 12:32:30;;;;;;;9.32;7.05;;;32.50;53.00;;;;;;4954280;29;20460;-86
2023/07/11 12:35:03;;;;;;;11.23;7.00;;;32.80;51.30;;;;;;4954162;29;20035;-85
2023/07/11 12:37:39;;;;;;;8.00;7.15;;;32.90;53.60;;;;;;4954254;29;20468;-86
2023/07/11 12:40:11;;;;;;;8.93;6.97;;;33.00;53.10;;;;;;4954621;29;20043;-87
2023/07/11 12:42:54;;;;;;;7.90;6.35;;;33.00;48.30;;;;;;4954812;29;20030;-88
2023/07/11 12:45:35;;;;;;;12.90;7.80;;;33.20;49.90;;;;;;4935901;29;20067;-85
2023/07/11 12:48:14;;;;;;;8.35;7.20;;;32.90;47.30;;;;;;4921440;29;20632;-86
2023/07/11 12:50:48;;;;;;;7.88;6.72;;;32.60;47.40;;;;;;4938613;29;20042;-86
2023/07/11 12:53:15;;;;;;;8.70;6.75;;;32.50;48.70;;;;;;4938850;29;20039;-87
2023/07/11 12:55:42;;;;;;;7.90;6.72;;;32.70;51.80;;;;;;4955888;28;20385;-87
2023/07/11 12:58:18;;;;;;;8.60;7.18;;;33.00;52.00;;;;;;4922894;29;21735;-86